createdAt,value
2019-02-04T00:00:19.850Z,1.20
2019-02-04T00:02:48.716Z,1.10
2019-02-04T00:05:17.138Z,1.00
2019-02-04T00:07:45.683Z,0.90
2019-02-04T00:10:15.526Z,0.80
2019-02-04T00:12:43.932Z,0.70
2019-02-04T00:15:12.458Z,0.60
2019-02-04T00:17:41.026Z,0.50
2019-02-04T00:20:11.050Z,0.50
2019-02-04T00:22:39.538Z,0.40
2019-02-04T00:25:08.013Z,0.40
2019-02-04T00:27:36.427Z,0.40
2019-02-04T00:30:10.797Z,0.30
2019-02-04T00:32:40.103Z,0.30
2019-02-04T00:35:08.500Z,0.20
2019-02-04T00:37:37.054Z,0.10
2019-02-04T00:40:08.705Z,0.10
2019-02-04T00:42:37.265Z,0.00
2019-02-04T00:45:08.162Z,-0.20
2019-02-04T00:47:36.617Z,-0.20
2019-02-04T00:50:08.230Z,-0.30
2019-02-04T00:52:36.830Z,-0.40
2019-02-04T00:55:08.670Z,-0.40
2019-02-04T00:57:37.154Z,-0.50
2019-02-04T01:00:11.378Z,-0.50
2019-02-04T01:02:39.773Z,-0.50
2019-02-04T01:05:08.855Z,-0.50
2019-02-04T01:07:37.234Z,-0.50
2019-02-04T01:10:11.498Z,-0.50
2019-02-04T01:12:39.885Z,-0.50
2019-02-04T01:15:08.297Z,-0.40
2019-02-04T01:17:36.682Z,-0.40
2019-02-04T01:20:13.446Z,-0.30
2019-02-04T01:22:42.665Z,-0.20
2019-02-04T01:25:11.536Z,-0.20
2019-02-04T01:27:44.081Z,-0.10
2019-02-04T01:30:15.300Z,-0.10
2019-02-04T01:32:43.730Z,0.00
2019-02-04T01:35:12.125Z,0.00
2019-02-04T01:37:40.701Z,0.00
2019-02-04T01:40:12.286Z,0.00
2019-02-04T01:42:40.758Z,0.00
2019-02-04T01:45:09.149Z,0.00
2019-02-04T01:47:37.537Z,0.00
2019-02-04T01:50:11.950Z,-0.10
2019-02-04T01:52:40.926Z,-0.10
2019-02-04T01:55:11.788Z,-0.20
2019-02-04T01:57:40.154Z,-0.20
2019-02-04T02:00:17.429Z,-0.30
2019-02-04T02:02:45.809Z,-0.40
2019-02-04T02:05:14.712Z,-0.40
2019-02-04T02:07:43.229Z,-0.50
2019-02-04T02:10:14.986Z,-0.50
2019-02-04T02:12:43.433Z,-0.50
2019-02-04T02:15:11.851Z,-0.60
2019-02-04T02:17:40.227Z,-0.60
2019-02-04T02:20:11.801Z,-0.70
2019-02-04T02:22:40.213Z,-0.70
2019-02-04T02:25:08.601Z,-0.80
2019-02-04T02:27:38.098Z,-0.80
2019-02-04T02:30:12.674Z,-0.80
2019-02-04T02:32:41.690Z,-0.70
2019-02-04T02:35:10.083Z,-0.70
2019-02-04T02:37:38.474Z,-0.70
2019-02-04T02:40:10.116Z,-0.70
2019-02-04T02:42:38.522Z,-0.70
2019-02-04T02:45:08.540Z,-0.70
2019-02-04T02:47:38.680Z,-0.70
2019-02-04T02:50:10.241Z,-0.70
2019-02-04T02:52:38.793Z,-0.70
2019-02-04T02:55:10.432Z,-0.60
2019-02-04T02:57:38.829Z,-0.70
2019-02-04T03:00:16.047Z,-0.70
2019-02-04T03:02:44.417Z,-0.80
2019-02-04T03:05:14.963Z,-0.80
2019-02-04T03:07:43.346Z,-0.80
2019-02-04T03:10:17.530Z,-0.90
2019-02-04T03:12:46.308Z,-0.80
2019-02-04T03:15:14.719Z,-0.80
2019-02-04T03:17:50.997Z,-0.80
2019-02-04T03:20:13.325Z,-0.80
2019-02-04T03:22:41.701Z,-0.70
2019-02-04T03:25:12.019Z,-0.60
2019-02-04T03:27:41.036Z,-0.60
2019-02-04T03:30:18.671Z,-0.50
2019-02-04T03:32:47.059Z,-0.50
2019-02-04T03:35:15.477Z,-0.50
2019-02-04T03:37:43.857Z,-0.50
2019-02-04T03:40:15.613Z,-0.50
2019-02-04T03:42:44.054Z,-0.40
2019-02-04T03:45:13.073Z,-0.40
2019-02-04T03:47:41.498Z,-0.30
2019-02-04T03:50:12.123Z,-0.30
2019-02-04T03:52:40.511Z,-0.20
2019-02-04T03:55:11.755Z,-0.20
2019-02-04T03:57:40.202Z,-0.30
2019-02-04T04:00:14.758Z,-0.30
2019-02-04T04:02:43.212Z,-0.40
2019-02-04T04:05:11.606Z,-0.40
2019-02-04T04:07:40.617Z,-0.40
2019-02-04T04:10:10.027Z,-0.50
2019-02-04T04:12:38.429Z,-0.50
2019-02-04T04:15:10.121Z,-0.60
2019-02-04T04:17:38.529Z,-0.70
2019-02-04T04:20:15.121Z,-0.80
2019-02-04T04:22:43.541Z,-0.80
2019-02-04T04:25:14.374Z,-0.90
2019-02-04T04:27:42.761Z,-1.00
2019-02-04T04:30:14.461Z,-1.00
2019-02-04T04:32:42.845Z,-1.10
2019-02-04T04:35:12.202Z,-1.20
2019-02-04T04:37:40.575Z,-1.30
2019-02-04T04:40:11.124Z,-1.30
2019-02-04T04:42:39.506Z,-1.40
2019-02-04T04:45:16.767Z,-1.40
2019-02-04T04:47:45.152Z,-1.40
2019-02-04T04:50:13.569Z,-1.50
2019-02-04T04:52:41.937Z,-1.50
2019-02-04T04:55:13.666Z,-1.50
2019-02-04T04:57:42.089Z,-1.60
2019-02-04T05:00:28.595Z,-1.60
2019-02-04T05:02:56.962Z,-1.60
2019-02-04T05:05:25.347Z,-1.60
2019-02-04T05:07:53.757Z,-1.60
2019-02-04T05:10:22.477Z,-1.70
2019-02-04T05:12:50.903Z,-1.70
2019-02-04T05:15:25.092Z,-1.70
2019-02-04T05:17:53.470Z,-1.70
2019-02-04T05:20:21.876Z,-1.80
2019-02-04T05:22:50.303Z,-1.80
2019-02-04T05:25:18.702Z,-1.90
2019-02-04T05:27:47.088Z,-1.90
2019-02-04T05:30:17.786Z,-1.90
2019-02-04T05:32:46.158Z,-1.90
2019-02-04T05:35:14.564Z,-2.00
2019-02-04T05:37:42.963Z,-2.00
2019-02-04T05:40:16.230Z,-1.90
2019-02-04T05:42:45.028Z,-1.90
2019-02-04T05:45:21.093Z,-2.00
2019-02-04T05:47:49.878Z,-2.00
2019-02-04T05:50:19.411Z,-2.00
2019-02-04T05:52:48.479Z,-2.10
2019-02-04T05:55:18.827Z,-2.10
2019-02-04T05:57:47.314Z,-2.10
2019-02-04T06:00:23.239Z,-2.20
2019-02-04T06:02:53.490Z,-2.20
2019-02-04T06:05:22.057Z,-2.20
2019-02-04T06:07:50.561Z,-2.20
2019-02-04T06:10:19.646Z,-2.20
2019-02-04T06:12:48.713Z,-2.30
2019-02-04T06:15:17.861Z,-2.30
2019-02-04T06:17:46.447Z,-2.30
2019-02-04T06:20:22.992Z,-2.30
2019-02-04T06:22:53.703Z,-2.30
2019-02-04T06:25:22.913Z,-2.40
2019-02-04T06:27:51.290Z,-2.40
2019-02-04T06:30:19.748Z,-2.40
2019-02-04T06:32:48.125Z,-2.40
2019-02-04T06:35:17.302Z,-2.40
2019-02-04T06:37:46.916Z,-2.40
2019-02-04T06:40:17.103Z,-2.40
2019-02-04T06:42:45.576Z,-2.40
2019-02-04T06:45:15.703Z,-2.40
2019-02-04T06:47:44.122Z,-2.40
2019-02-04T06:50:17.365Z,-2.40
2019-02-04T06:52:45.781Z,-2.40
2019-02-04T06:55:19.789Z,-2.40
2019-02-04T06:57:48.247Z,-2.40
2019-02-04T07:00:19.340Z,-2.30
2019-02-04T07:02:47.726Z,-2.30
2019-02-04T07:05:17.885Z,-2.30
2019-02-04T07:07:46.271Z,-2.30
2019-02-04T07:10:17.029Z,-2.30
2019-02-04T07:12:45.410Z,-2.20
2019-02-04T07:15:13.825Z,-2.10
2019-02-04T07:17:42.218Z,-2.10
2019-02-04T07:20:13.854Z,-2.00
2019-02-04T07:22:42.270Z,-1.90
2019-02-04T07:25:12.794Z,-1.90
2019-02-04T07:27:41.280Z,-1.80
2019-02-04T07:30:15.137Z,-1.80
2019-02-04T07:32:43.579Z,-1.70
2019-02-04T07:35:14.300Z,-1.70
2019-02-04T07:37:42.717Z,-1.60
2019-02-04T07:40:16.897Z,-1.60
2019-02-04T07:42:45.456Z,-1.50
2019-02-04T07:45:14.355Z,-1.50
2019-02-04T07:47:42.780Z,-1.40
2019-02-04T07:50:11.226Z,-1.40
2019-02-04T07:52:39.614Z,-1.40
2019-02-04T07:55:09.684Z,-1.40
2019-02-04T07:57:38.151Z,-1.30
2019-02-04T08:00:12.977Z,-1.20
2019-02-04T08:02:41.667Z,-1.20
2019-02-04T08:05:10.096Z,-1.10
2019-02-04T08:07:38.477Z,-1.00
2019-02-04T08:10:10.433Z,-1.00
2019-02-04T08:12:38.825Z,-0.90
2019-02-04T08:15:19.426Z,-0.80
2019-02-04T08:17:47.879Z,-0.70
2019-02-04T08:20:16.306Z,-0.60
2019-02-04T08:22:44.697Z,-0.50
2019-02-04T08:25:16.022Z,-0.40
2019-02-04T08:27:44.449Z,-0.30
2019-02-04T08:30:19.390Z,0.10
2019-02-04T08:32:47.905Z,1.90
2019-02-04T08:35:16.289Z,4.50
2019-02-04T08:37:44.718Z,6.40
2019-02-04T08:40:15.427Z,7.80
2019-02-04T08:42:43.857Z,9.40
2019-02-04T08:45:14.114Z,11.10
2019-02-04T08:47:42.599Z,12.00
2019-02-04T08:50:17.148Z,12.90
2019-02-04T08:52:45.569Z,13.60
2019-02-04T08:55:13.949Z,14.30
2019-02-04T08:57:42.430Z,15.40
2019-02-04T09:00:21.898Z,14.20
2019-02-04T09:02:50.309Z,12.60
2019-02-04T09:05:19.622Z,13.10
2019-02-04T09:07:48.037Z,14.30
2019-02-04T09:10:19.726Z,15.60
2019-02-04T09:12:48.175Z,16.80
2019-02-04T09:15:16.596Z,17.50
2019-02-04T09:17:45.001Z,17.60
2019-02-04T09:20:16.120Z,18.00
2019-02-04T09:22:44.851Z,18.40
2019-02-04T09:25:16.162Z,18.60
2019-02-04T09:27:44.579Z,18.00
2019-02-04T09:30:18.679Z,18.20
2019-02-04T09:32:47.135Z,18.00
2019-02-04T09:35:18.349Z,18.20
2019-02-04T09:37:46.759Z,18.70
2019-02-04T09:40:24.005Z,18.30
2019-02-04T09:42:52.406Z,17.80
2019-02-04T09:45:23.867Z,16.80
2019-02-04T09:47:50.957Z,16.60
2019-02-04T09:50:28.532Z,16.30
2019-02-04T09:52:56.917Z,17.00
2019-02-04T09:55:28.950Z,16.90
2019-02-04T09:57:57.411Z,16.40
2019-02-04T10:00:28.750Z,16.20
2019-02-04T10:02:57.141Z,16.20
2019-02-04T10:05:25.562Z,16.40
2019-02-04T10:07:53.961Z,16.10
2019-02-04T10:10:28.064Z,16.40
2019-02-04T10:12:56.590Z,16.60
2019-02-04T10:15:28.036Z,16.80
2019-02-04T10:17:56.535Z,14.90
2019-02-04T10:20:33.628Z,13.80
2019-02-04T10:22:55.059Z,15.00
2019-02-04T10:25:29.220Z,15.70
2019-02-04T10:27:57.570Z,16.60
2019-02-04T10:30:25.974Z,16.10
2019-02-04T10:32:54.381Z,15.80
2019-02-04T10:35:22.865Z,14.00
2019-02-04T10:37:51.976Z,14.50
2019-02-04T10:40:25.935Z,14.30
2019-02-04T10:42:54.453Z,14.30
2019-02-04T10:45:22.900Z,15.20
2019-02-04T10:47:51.310Z,16.70
2019-02-04T10:50:22.692Z,17.20
2019-02-04T10:52:51.141Z,17.60
2019-02-04T10:55:19.597Z,17.30
2019-02-04T10:57:47.956Z,17.00
2019-02-04T11:00:18.783Z,16.80
2019-02-04T11:02:47.129Z,16.80
2019-02-04T11:05:21.614Z,15.70
2019-02-04T11:07:50.058Z,15.20
2019-02-04T11:10:22.647Z,14.70
2019-02-04T11:12:51.058Z,14.90
2019-02-04T11:15:19.440Z,14.70
2019-02-04T11:17:47.926Z,14.60
2019-02-04T11:20:19.613Z,14.60
2019-02-04T11:22:48.045Z,14.50
2019-02-04T11:25:16.446Z,15.40
2019-02-04T11:27:44.840Z,15.40
2019-02-04T11:30:38.876Z,15.60
2019-02-04T11:33:07.278Z,15.40
2019-02-04T11:35:35.670Z,14.70
2019-02-04T11:38:04.066Z,14.50
2019-02-04T11:40:37.945Z,14.70
2019-02-04T11:43:06.723Z,14.30
2019-02-04T11:45:35.165Z,13.60
2019-02-04T11:48:06.075Z,12.70
2019-02-04T11:50:34.504Z,12.60
2019-02-04T11:53:02.884Z,12.20
2019-02-04T11:55:31.262Z,12.00
2019-02-04T11:57:59.665Z,12.40
2019-02-04T12:00:30.367Z,12.60
2019-02-04T12:03:00.419Z,12.90
2019-02-04T12:05:28.794Z,13.20
2019-02-04T12:07:57.218Z,13.00
2019-02-04T12:10:34.778Z,13.20
2019-02-04T12:13:03.517Z,13.10
2019-02-04T12:15:31.856Z,12.30
2019-02-04T12:18:00.311Z,12.20
2019-02-04T12:20:28.662Z,11.80
2019-02-04T12:22:57.073Z,12.10
2019-02-04T12:25:26.887Z,11.60
2019-02-04T12:27:56.639Z,11.20
2019-02-04T12:30:30.883Z,11.70
2019-02-04T12:32:58.453Z,11.80
2019-02-04T12:35:26.895Z,11.10
2019-02-04T12:37:55.347Z,11.30
2019-02-04T12:40:23.765Z,11.80
2019-02-04T12:42:52.483Z,11.90
2019-02-04T12:45:32.638Z,12.00
2019-02-04T12:48:01.125Z,11.80
2019-02-04T12:50:29.676Z,11.40
2019-02-04T12:52:58.061Z,11.00
2019-02-04T12:55:28.820Z,10.90
2019-02-04T12:57:57.200Z,10.30
2019-02-04T13:00:28.387Z,9.50
2019-02-04T13:02:57.696Z,9.40
2019-02-04T13:05:37.750Z,9.00
2019-02-04T13:08:08.265Z,8.70
2019-02-04T13:10:36.662Z,8.70
2019-02-04T13:13:07.945Z,8.30
2019-02-04T13:15:36.369Z,7.90
2019-02-04T13:18:04.893Z,7.90
2019-02-04T13:20:33.378Z,8.00
2019-02-04T13:23:04.045Z,8.20
2019-02-04T13:25:32.451Z,8.20
2019-02-04T13:28:00.826Z,8.20
2019-02-04T13:30:30.570Z,8.10
2019-02-04T13:32:58.994Z,8.10
2019-02-04T13:35:27.948Z,8.10
2019-02-04T13:37:57.520Z,8.10
2019-02-04T13:40:29.232Z,8.10
2019-02-04T13:42:57.656Z,7.70
2019-02-04T13:45:26.052Z,7.50
2019-02-04T13:47:54.620Z,7.40
2019-02-04T13:50:23.677Z,7.20
2019-02-04T13:52:52.815Z,7.50
2019-02-04T13:55:30.295Z,7.50
2019-02-04T13:57:58.671Z,7.40
2019-02-04T14:00:27.549Z,7.20
2019-02-04T14:02:59.542Z,7.20
2019-02-04T14:05:26.309Z,6.90
2019-02-04T14:07:54.679Z,6.90
2019-02-04T14:10:25.691Z,6.80
2019-02-04T14:12:54.070Z,6.50
2019-02-04T14:15:22.494Z,6.40
2019-02-04T14:17:50.865Z,6.40
2019-02-04T14:20:21.718Z,6.40
2019-02-04T14:22:50.094Z,6.40
2019-02-04T14:25:20.113Z,6.40
2019-02-04T14:27:48.517Z,6.50
2019-02-04T14:30:22.604Z,6.40
2019-02-04T14:32:51.576Z,6.30
2019-02-04T14:35:20.034Z,6.10
2019-02-04T14:37:48.425Z,6.00
2019-02-04T14:40:18.864Z,6.00
2019-02-04T14:42:53.426Z,5.90
2019-02-04T14:45:43.961Z,5.80
2019-02-04T14:48:30.434Z,5.80
2019-02-04T14:51:19.914Z,5.80
2019-02-04T14:54:10.838Z,5.80
2019-02-04T14:57:03.506Z,5.90
2019-02-04T14:59:32.255Z,5.80
2019-02-04T15:02:12.713Z,5.80
2019-02-04T15:05:13.085Z,5.80
2019-02-04T15:07:44.721Z,5.70
2019-02-04T15:10:22.235Z,5.60
2019-02-04T15:13:08.710Z,5.50
2019-02-04T15:16:12.710Z,5.30
2019-02-04T15:19:01.058Z,5.20
2019-02-04T15:21:52.354Z,5.10
2019-02-04T15:24:30.005Z,5.00
2019-02-04T15:27:20.976Z,4.80
2019-02-04T15:29:51.609Z,4.70
2019-02-04T15:32:32.095Z,4.50
2019-02-04T15:35:15.711Z,4.40
2019-02-04T15:37:47.372Z,4.20
2019-02-04T15:40:24.702Z,4.10
2019-02-04T15:42:59.053Z,4.00
2019-02-04T15:45:41.902Z,3.90
2019-02-04T15:48:12.066Z,3.80
2019-02-04T15:50:43.995Z,3.70
2019-02-04T15:53:12.491Z,3.70
2019-02-04T15:55:40.878Z,3.60
2019-02-04T15:58:09.285Z,3.50
2019-02-04T16:00:37.671Z,3.40
2019-02-04T16:03:06.498Z,3.30
2019-02-04T16:05:34.842Z,3.20
2019-02-04T16:08:03.677Z,3.10
2019-02-04T16:10:32.116Z,3.00
2019-02-04T16:13:00.531Z,2.90
2019-02-04T16:15:28.949Z,2.80
2019-02-04T16:17:58.010Z,2.70
2019-02-04T16:20:26.631Z,2.60
2019-02-04T16:22:58.697Z,2.60
2019-02-04T16:25:25.560Z,2.50
2019-02-04T16:27:53.965Z,2.40
2019-02-04T16:30:22.654Z,2.40
2019-02-04T16:32:52.893Z,2.20
2019-02-04T16:35:21.122Z,2.20
2019-02-04T16:37:51.211Z,2.20
2019-02-04T16:40:22.271Z,2.20
2019-02-04T16:42:50.864Z,2.20
2019-02-04T16:45:22.278Z,2.20
2019-02-04T16:47:51.432Z,2.30
2019-02-04T16:50:22.304Z,2.30
2019-02-04T16:52:50.789Z,2.30
2019-02-04T16:55:20.174Z,2.30
2019-02-04T16:57:48.780Z,2.30
2019-02-04T17:00:22.910Z,2.30
2019-02-04T17:02:53.142Z,2.20
2019-02-04T17:05:23.345Z,2.20
2019-02-04T17:07:51.906Z,2.20
2019-02-04T17:10:22.729Z,2.20
2019-02-04T17:12:51.371Z,2.20
2019-02-04T17:15:20.126Z,2.10
2019-02-04T17:17:48.765Z,2.10
2019-02-04T17:20:31.281Z,2.10
2019-02-04T17:23:00.173Z,2.00
2019-02-04T17:25:28.592Z,2.00
2019-02-04T17:27:58.605Z,1.90
2019-02-04T17:30:27.052Z,1.90
2019-02-04T17:32:55.521Z,1.90
2019-02-04T17:35:24.477Z,1.80
2019-02-04T17:37:52.904Z,1.80
2019-02-04T17:40:23.579Z,1.80
2019-02-04T17:42:53.885Z,1.80
2019-02-04T17:45:22.261Z,1.70
2019-02-04T17:47:51.766Z,1.70
2019-02-04T17:50:21.428Z,1.60
2019-02-04T17:52:50.119Z,1.70
2019-02-04T17:55:23.960Z,1.60
2019-02-04T17:57:52.798Z,1.60
2019-02-04T18:00:30.641Z,1.50
2019-02-04T18:02:59.045Z,1.50
2019-02-04T18:05:27.457Z,1.40
2019-02-04T18:07:55.810Z,1.50
2019-02-04T18:10:24.212Z,1.40
2019-02-04T18:12:52.586Z,1.30
2019-02-04T18:15:22.929Z,1.30
2019-02-04T18:17:51.296Z,1.30
2019-02-04T18:20:19.710Z,1.30
2019-02-04T18:22:48.102Z,1.30
2019-02-04T18:25:21.631Z,1.30
2019-02-04T18:27:50.043Z,1.20
2019-02-04T18:30:20.980Z,1.20
2019-02-04T18:32:49.357Z,1.10
2019-02-04T18:35:17.766Z,1.10
2019-02-04T18:37:46.216Z,1.10
2019-02-04T18:40:19.917Z,1.10
2019-02-04T18:42:48.793Z,1.10
2019-02-04T18:45:31.417Z,1.10
2019-02-04T18:47:59.789Z,1.10
2019-02-04T18:50:28.588Z,1.10
2019-02-04T18:52:56.959Z,1.10
2019-02-04T18:55:44.795Z,1.20
2019-02-04T18:58:13.178Z,1.20
2019-02-04T19:00:41.881Z,1.20
2019-02-04T19:03:17.246Z,1.10
2019-02-04T19:05:40.298Z,1.10
2019-02-04T19:08:08.775Z,1.00
2019-02-04T19:10:37.153Z,1.10
2019-02-04T19:13:05.824Z,1.10
2019-02-04T19:15:34.198Z,1.10
2019-02-04T19:18:05.806Z,1.20
2019-02-04T19:20:34.755Z,1.30
2019-02-04T19:23:03.084Z,1.30
2019-02-04T19:25:31.495Z,1.30
2019-02-04T19:27:59.990Z,1.40
2019-02-04T19:30:31.050Z,1.40
2019-02-04T19:32:59.468Z,1.40
2019-02-04T19:35:27.853Z,1.40
2019-02-04T19:37:56.267Z,1.40
2019-02-04T19:40:24.636Z,1.40
2019-02-04T19:42:53.046Z,1.40
2019-02-04T19:45:26.956Z,1.40
2019-02-04T19:47:55.680Z,1.40
2019-02-04T19:50:32.577Z,1.50
2019-02-04T19:53:00.981Z,1.50
2019-02-04T19:55:29.353Z,1.50
2019-02-04T19:57:57.840Z,1.50
2019-02-04T20:00:27.087Z,1.50
2019-02-04T20:02:55.730Z,1.50
2019-02-04T20:05:26.998Z,1.60
2019-02-04T20:07:55.815Z,1.60
2019-02-04T20:10:26.885Z,1.60
2019-02-04T20:12:55.268Z,1.60
2019-02-04T20:15:29.422Z,1.70
2019-02-04T20:17:57.981Z,1.60
2019-02-04T20:20:26.722Z,1.60
2019-02-04T20:22:57.919Z,1.60
2019-02-04T20:25:29.668Z,1.60
2019-02-04T20:27:58.179Z,1.60
2019-02-04T20:30:44.609Z,1.60
2019-02-04T20:33:02.408Z,1.60
2019-02-04T20:35:31.346Z,1.60
2019-02-04T20:37:59.910Z,1.60
2019-02-04T20:40:29.354Z,1.60
2019-02-04T20:42:57.885Z,1.60
2019-02-04T20:45:26.597Z,1.60
2019-02-04T20:50:49.086Z,1.60
2019-02-04T20:53:19.458Z,1.60
2019-02-04T20:55:48.103Z,1.50
2019-02-04T20:58:16.653Z,1.50
2019-02-04T21:00:45.482Z,1.60
2019-02-04T21:03:14.014Z,1.60
2019-02-04T21:05:45.489Z,1.60
2019-02-04T21:08:14.031Z,1.50
2019-02-04T21:10:43.127Z,1.50
2019-02-04T21:13:11.893Z,1.50
2019-02-04T21:15:40.593Z,1.50
2019-02-04T21:18:09.192Z,1.40
2019-02-04T21:24:06.995Z,1.40
2019-02-04T21:26:37.147Z,1.40
2019-02-04T21:29:07.167Z,1.40
2019-02-04T21:31:35.815Z,1.40
2019-02-04T21:34:05.393Z,1.30
2019-02-04T21:36:33.861Z,1.30
2019-02-04T21:39:02.233Z,1.30
2019-02-04T21:41:30.809Z,1.30
2019-02-04T21:43:59.253Z,1.30
2019-02-04T21:46:27.629Z,1.30
2019-02-04T21:48:56.029Z,1.20
2019-02-04T21:51:24.548Z,1.30
2019-02-04T21:53:53.031Z,1.20
2019-02-04T21:56:21.561Z,1.20
2019-02-04T21:58:50.995Z,1.20
2019-02-04T22:01:19.486Z,1.10
2019-02-04T22:03:48.019Z,1.10
2019-02-04T22:06:16.525Z,1.00
2019-02-04T22:08:45.021Z,1.00
2019-02-04T22:11:13.585Z,1.00
2019-02-04T22:13:42.019Z,1.00
2019-02-04T22:16:10.562Z,1.00
2019-02-04T22:18:39.157Z,1.00
2019-02-04T22:21:07.541Z,0.90
2019-02-04T22:23:35.944Z,0.90
2019-02-04T22:26:04.374Z,0.90
2019-02-04T22:28:32.910Z,0.90
2019-02-04T22:31:01.797Z,0.80
2019-02-04T22:33:31.021Z,0.80
2019-02-04T22:35:59.560Z,0.80
2019-02-04T22:38:28.131Z,0.80
2019-02-04T22:40:56.583Z,0.80
2019-02-04T22:43:25.172Z,0.80
2019-02-04T22:45:53.707Z,0.80
2019-02-04T22:48:22.664Z,0.70
2019-02-04T22:50:51.189Z,0.70
2019-02-04T22:53:19.752Z,0.70
2019-02-04T22:55:48.890Z,0.70
2019-02-04T22:58:17.325Z,0.60
2019-02-04T23:00:50.359Z,0.60
2019-02-04T23:03:24.628Z,0.60
2019-02-04T23:05:53.820Z,0.50
2019-02-04T23:08:22.273Z,0.50
2019-02-04T23:10:50.677Z,0.40
2019-02-04T23:13:19.062Z,0.30
2019-02-04T23:15:47.479Z,0.30
2019-02-04T23:18:15.853Z,0.20
2019-02-04T23:20:44.262Z,0.10
2019-02-04T23:23:12.639Z,0.00
2019-02-04T23:25:43.598Z,0.00
2019-02-04T23:28:11.093Z,-0.10
2019-02-04T23:30:39.537Z,-0.10
2019-02-04T23:33:07.966Z,-0.10
2019-02-04T23:35:36.422Z,0.00
2019-02-04T23:38:05.003Z,0.00
2019-02-04T23:40:34.567Z,0.00
2019-02-04T23:43:02.969Z,0.00
2019-02-04T23:45:31.348Z,0.00
2019-02-04T23:48:00.140Z,-0.10
2019-02-04T23:50:28.522Z,-0.10
2019-02-04T23:52:57.984Z,-0.10
2019-02-04T23:55:26.361Z,-0.10
2019-02-04T23:57:54.781Z,0.00
